GOOSE45 KTUS-KAUS
Flight info
| Callsign | GOOSE45 |
|---|---|
| Flight time | 1h 35m |
| Altitude | 33000 |
| Route | BURRO5 NOCHI ELP FST DILLO LAIKS4 |
| Aircraft | A319/M-SDE3FGHIRWY/LB1 |
Departure
| Time | 2026-04-21 23:23 |
|---|---|
| Airport | Tucson International Airport (KTUS) |
Arrival
| Time | 2026-04-22 00:58 |
|---|---|
| Airport | Austin Bergstrom International Airport (KAUS) |
| Time | Latitude | Longitude | Altitude | Speed | Heading |
|---|---|---|---|---|---|
| 2026-04-21 22:57 | 32.12676 | -110.94436 | 2576 ft | 0 kts | 316° |
| 2026-04-21 23:15 | 32.12674 | -110.94435 | 2572 ft | 2 kts | 316° |
| 2026-04-21 23:15 | 32.12663 | -110.94418 | 2569 ft | 3 kts | 283° |
| 2026-04-21 23:15 | 32.12663 | -110.94417 | 2569 ft | 0 kts | 282° |
| 2026-04-21 23:18 | 32.12663 | -110.94418 | 2569 ft | 0 kts | 278° |
| 2026-04-21 23:18 | 32.12661 | -110.94424 | 2576 ft | 0 kts | 246° |
| 2026-04-21 23:19 | 32.12658 | -110.94457 | 2576 ft | 8 kts | 282° |
| 2026-04-21 23:19 | 32.12679 | -110.94516 | 2574 ft | 7 kts | 258° |
| 2026-04-21 23:19 | 32.12642 | -110.94573 | 2573 ft | 11 kts | 224° |
| 2026-04-21 23:20 | 32.12577 | -110.94646 | 2572 ft | 14 kts | 223° |
| 2026-04-21 23:20 | 32.12512 | -110.94720 | 2570 ft | 11 kts | 227° |
| 2026-04-21 23:20 | 32.12465 | -110.94779 | 2571 ft | 7 kts | 227° |
| 2026-04-21 23:20 | 32.12462 | -110.94782 | 2573 ft | 0 kts | 226° |
| 2026-04-21 23:21 | 32.12446 | -110.94801 | 2576 ft | 8 kts | 222° |
| 2026-04-21 23:21 | 32.12366 | -110.94817 | 2575 ft | 15 kts | 151° |
| 2026-04-21 23:22 | 32.12214 | -110.94641 | 2585 ft | 56 kts | 135° |
| 2026-04-21 23:22 | 32.11798 | -110.94151 | 2598 ft | 112 kts | 135° |
| 2026-04-21 23:22 | 32.11117 | -110.93359 | 2644 ft | 160 kts | 135° |
| 2026-04-21 23:22 | 32.10277 | -110.92397 | 2994 ft | 180 kts | 138° |
| 2026-04-21 23:23 | 32.09323 | -110.91300 | 3394 ft | 203 kts | 138° |
| 2026-04-21 23:23 | 32.08259 | -110.90072 | 3852 ft | 224 kts | 138° |
| 2026-04-21 23:23 | 32.07068 | -110.88698 | 4148 ft | 259 kts | 138° |
| 2026-04-21 23:23 | 32.05699 | -110.87117 | 4443 ft | 282 kts | 137° |
| 2026-04-21 23:24 | 32.04314 | -110.85473 | 4955 ft | 285 kts | 138° |
| 2026-04-21 23:24 | 32.02932 | -110.83815 | 5478 ft | 284 kts | 137° |
| 2026-04-21 23:24 | 32.01536 | -110.82161 | 6001 ft | 288 kts | 137° |
| 2026-04-21 23:24 | 32.00115 | -110.80508 | 6534 ft | 285 kts | 138° |
| 2026-04-21 23:25 | 31.98678 | -110.78867 | 7047 ft | 289 kts | 139° |
| 2026-04-21 23:25 | 31.97228 | -110.77237 | 7576 ft | 289 kts | 139° |
| 2026-04-21 23:25 | 31.95910 | -110.75442 | 8106 ft | 294 kts | 123° |
| 2026-04-21 23:25 | 31.94961 | -110.73293 | 8639 ft | 298 kts | 116° |
| 2026-04-21 23:26 | 31.94183 | -110.71026 | 9185 ft | 299 kts | 112° |
| 2026-04-21 23:26 | 31.93511 | -110.68714 | 9739 ft | 298 kts | 109° |
| 2026-04-21 23:26 | 31.92908 | -110.66338 | 10013 ft | 316 kts | 108° |
| 2026-04-21 23:26 | 31.92334 | -110.63821 | 10632 ft | 326 kts | 106° |
| 2026-04-21 23:27 | 31.91773 | -110.61172 | 11176 ft | 341 kts | 105° |
| 2026-04-21 23:27 | 31.91222 | -110.58399 | 11699 ft | 355 kts | 104° |
| 2026-04-21 23:27 | 31.90672 | -110.55504 | 12254 ft | 369 kts | 104° |
| 2026-04-21 23:27 | 31.90167 | -110.52489 | 12816 ft | 383 kts | 97° |
| 2026-04-21 23:28 | 31.90211 | -110.49304 | 13403 ft | 395 kts | 86° |
| 2026-04-21 23:28 | 31.90543 | -110.46082 | 13957 ft | 398 kts | 83° |
| 2026-04-21 23:28 | 31.90982 | -110.42857 | 14467 ft | 402 kts | 81° |
| 2026-04-21 23:28 | 31.91487 | -110.39586 | 14983 ft | 409 kts | 79° |
| 2026-04-21 23:29 | 31.92038 | -110.36278 | 15502 ft | 415 kts | 79° |
| 2026-04-21 23:29 | 31.92422 | -110.34068 | 15852 ft | 418 kts | 78° |
| 2026-04-21 23:29 | 31.93024 | -110.30700 | 16390 ft | 423 kts | 78° |
| 2026-04-21 23:29 | 31.93644 | -110.27305 | 16935 ft | 425 kts | 78° |
| 2026-04-21 23:30 | 31.94277 | -110.23889 | 17500 ft | 429 kts | 77° |
| 2026-04-21 23:30 | 31.94923 | -110.20435 | 18073 ft | 434 kts | 77° |
| 2026-04-21 23:30 | 31.95579 | -110.16955 | 18588 ft | 438 kts | 77° |
| 2026-04-21 23:30 | 31.96244 | -110.13443 | 19089 ft | 441 kts | 77° |
| 2026-04-21 23:31 | 31.96914 | -110.09909 | 19611 ft | 443 kts | 77° |
| 2026-04-21 23:31 | 31.97587 | -110.06353 | 20135 ft | 446 kts | 77° |
| 2026-04-21 23:31 | 31.98266 | -110.02771 | 20674 ft | 450 kts | 76° |
| 2026-04-21 23:31 | 31.98953 | -109.99156 | 21225 ft | 454 kts | 76° |
| 2026-04-21 23:32 | 31.99643 | -109.95507 | 21777 ft | 458 kts | 76° |
| 2026-04-21 23:32 | 32.00335 | -109.91833 | 22331 ft | 461 kts | 76° |
| 2026-04-21 23:32 | 32.01033 | -109.88133 | 22916 ft | 464 kts | 76° |
| 2026-04-21 23:32 | 32.01734 | -109.84415 | 23495 ft | 466 kts | 76° |
| 2026-04-21 23:33 | 32.02434 | -109.80680 | 23992 ft | 468 kts | 76° |
| 2026-04-21 23:33 | 32.02810 | -109.76858 | 24493 ft | 471 kts | 86° |
| 2026-04-21 23:33 | 32.02842 | -109.72989 | 25002 ft | 473 kts | 89° |
| 2026-04-21 23:33 | 32.02759 | -109.69111 | 25518 ft | 474 kts | 91° |
| 2026-04-21 23:34 | 32.02597 | -109.65223 | 26049 ft | 475 kts | 92° |
| 2026-04-21 23:34 | 32.02412 | -109.61340 | 26591 ft | 475 kts | 92° |
| 2026-04-21 23:34 | 32.02221 | -109.57452 | 27141 ft | 475 kts | 92° |
| 2026-04-21 23:34 | 32.02038 | -109.53569 | 27706 ft | 474 kts | 92° |
| 2026-04-21 23:35 | 32.01861 | -109.49694 | 28290 ft | 473 kts | 91° |
| 2026-04-21 23:35 | 32.01685 | -109.45824 | 28870 ft | 472 kts | 91° |
| 2026-04-21 23:35 | 32.01507 | -109.41966 | 29474 ft | 470 kts | 91° |
| 2026-04-21 23:35 | 32.01328 | -109.38128 | 30065 ft | 468 kts | 91° |
| 2026-04-21 23:36 | 32.01147 | -109.34311 | 30582 ft | 465 kts | 91° |
| 2026-04-21 23:36 | 32.00962 | -109.30518 | 31115 ft | 462 kts | 91° |
| 2026-04-21 23:36 | 32.00776 | -109.26754 | 31659 ft | 458 kts | 92° |
| 2026-04-21 23:36 | 32.00588 | -109.23026 | 32203 ft | 454 kts | 92° |
| 2026-04-21 23:37 | 32.00397 | -109.19376 | 32619 ft | 453 kts | 92° |
| 2026-04-21 23:37 | 32.00199 | -109.15651 | 32800 ft | 458 kts | 92° |
| 2026-04-21 23:37 | 31.99792 | -109.08033 | 32907 ft | 475 kts | 92° |
| 2026-04-21 23:38 | 31.99363 | -109.00069 | 32931 ft | 493 kts | 92° |
| 2026-04-21 23:38 | 31.98917 | -108.91909 | 32935 ft | 512 kts | 92° |
| 2026-04-21 23:39 | 31.98449 | -108.83428 | 32925 ft | 522 kts | 92° |
| 2026-04-21 23:39 | 31.97970 | -108.74957 | 32930 ft | 515 kts | 92° |
| 2026-04-21 23:40 | 31.97490 | -108.66560 | 32930 ft | 515 kts | 92° |
| 2026-04-21 23:40 | 31.97004 | -108.58128 | 32932 ft | 517 kts | 92° |
| 2026-04-21 23:41 | 31.96514 | -108.49704 | 32933 ft | 515 kts | 92° |
| 2026-04-21 23:41 | 31.96018 | -108.41296 | 32897 ft | 514 kts | 92° |
| 2026-04-21 23:42 | 31.95522 | -108.32935 | 32927 ft | 510 kts | 92° |
| 2026-04-21 23:42 | 31.95022 | -108.24600 | 32933 ft | 511 kts | 93° |
| 2026-04-21 23:43 | 31.94518 | -108.16254 | 32931 ft | 511 kts | 93° |
| 2026-04-21 23:43 | 31.94008 | -108.07936 | 32931 ft | 508 kts | 93° |
| 2026-04-21 23:44 | 31.93492 | -107.99635 | 32930 ft | 508 kts | 93° |
| 2026-04-21 23:44 | 31.92972 | -107.91336 | 32921 ft | 508 kts | 94° |
| 2026-04-21 23:45 | 31.92183 | -107.78926 | 32932 ft | 506 kts | 94° |
| 2026-04-21 23:46 | 31.91652 | -107.70659 | 32923 ft | 506 kts | 94° |
| 2026-04-21 23:46 | 31.91115 | -107.62406 | 32907 ft | 505 kts | 94° |
| 2026-04-21 23:47 | 31.90572 | -107.54163 | 32905 ft | 506 kts | 94° |
| 2026-04-21 23:47 | 31.90023 | -107.45908 | 32897 ft | 505 kts | 94° |
| 2026-04-21 23:48 | 31.89470 | -107.37667 | 32895 ft | 504 kts | 94° |
| 2026-04-21 23:48 | 31.88917 | -107.29496 | 32897 ft | 505 kts | 94° |
| 2026-04-21 23:49 | 31.88353 | -107.21253 | 32894 ft | 505 kts | 95° |
| 2026-04-21 23:49 | 31.87784 | -107.13039 | 32884 ft | 503 kts | 95° |
| 2026-04-21 23:50 | 31.87213 | -107.04839 | 32935 ft | 503 kts | 95° |
| 2026-04-21 23:50 | 31.86636 | -106.96639 | 32980 ft | 502 kts | 95° |
| 2026-04-21 23:51 | 31.86054 | -106.88459 | 33034 ft | 502 kts | 95° |
| 2026-04-21 23:51 | 31.85467 | -106.80278 | 33080 ft | 503 kts | 95° |
| 2026-04-21 23:52 | 31.84873 | -106.72086 | 33085 ft | 503 kts | 95° |
| 2026-04-21 23:52 | 31.84275 | -106.63903 | 33077 ft | 502 kts | 95° |
| 2026-04-21 23:53 | 31.83672 | -106.55726 | 33052 ft | 503 kts | 95° |
| 2026-04-21 23:53 | 31.83060 | -106.47525 | 33052 ft | 504 kts | 95° |
| 2026-04-21 23:54 | 31.82444 | -106.39331 | 33057 ft | 502 kts | 95° |
| 2026-04-21 23:54 | 31.81822 | -106.31160 | 33057 ft | 502 kts | 95° |
| 2026-04-21 23:55 | 31.80443 | -106.23179 | 33034 ft | 502 kts | 105° |
| 2026-04-21 23:55 | 31.78550 | -106.15278 | 32996 ft | 501 kts | 107° |
| 2026-04-21 23:56 | 31.76586 | -106.07428 | 32954 ft | 500 kts | 107° |
| 2026-04-21 23:56 | 31.74606 | -105.99578 | 32922 ft | 502 kts | 107° |
| 2026-04-21 23:57 | 31.72621 | -105.91716 | 32903 ft | 501 kts | 107° |
| 2026-04-21 23:57 | 31.70643 | -105.83876 | 32901 ft | 501 kts | 107° |
| 2026-04-21 23:58 | 31.68663 | -105.76028 | 32901 ft | 502 kts | 107° |
| 2026-04-21 23:58 | 31.66678 | -105.68165 | 32905 ft | 502 kts | 107° |
| 2026-04-21 23:59 | 31.64695 | -105.60320 | 32902 ft | 501 kts | 107° |
| 2026-04-21 23:59 | 31.62709 | -105.52483 | 32906 ft | 502 kts | 107° |
| 2026-04-22 00:00 | 31.60714 | -105.44627 | 32912 ft | 503 kts | 107° |
| 2026-04-22 00:00 | 31.58719 | -105.36778 | 32905 ft | 501 kts | 107° |
| 2026-04-22 00:01 | 31.56723 | -105.28946 | 32907 ft | 502 kts | 108° |
| 2026-04-22 00:01 | 31.54716 | -105.21099 | 32906 ft | 503 kts | 108° |
| 2026-04-22 00:02 | 31.52703 | -105.13249 | 32907 ft | 502 kts | 108° |
| 2026-04-22 00:02 | 31.50689 | -105.05415 | 32916 ft | 502 kts | 108° |
| 2026-04-22 00:03 | 31.48667 | -104.97566 | 32915 ft | 504 kts | 108° |
| 2026-04-22 00:03 | 31.46640 | -104.89718 | 32910 ft | 503 kts | 108° |
| 2026-04-22 00:04 | 31.44613 | -104.81890 | 32915 ft | 502 kts | 108° |
| 2026-04-22 00:04 | 31.42573 | -104.74046 | 32919 ft | 504 kts | 108° |
| 2026-04-22 00:05 | 31.40528 | -104.66202 | 32912 ft | 503 kts | 108° |
| 2026-04-22 00:05 | 31.38499 | -104.58436 | 32919 ft | 503 kts | 108° |
| 2026-04-22 00:06 | 31.36448 | -104.50604 | 32917 ft | 504 kts | 108° |
| 2026-04-22 00:06 | 31.34389 | -104.42767 | 32922 ft | 504 kts | 108° |
| 2026-04-22 00:07 | 31.32328 | -104.34937 | 32925 ft | 504 kts | 108° |
| 2026-04-22 00:07 | 31.30260 | -104.27107 | 32926 ft | 504 kts | 108° |
| 2026-04-22 00:08 | 31.28493 | -104.20435 | 32929 ft | 505 kts | 108° |
| 2026-04-22 00:08 | 31.26411 | -104.12592 | 32927 ft | 505 kts | 108° |
| 2026-04-22 00:09 | 31.24323 | -104.04751 | 32930 ft | 505 kts | 108° |
| 2026-04-22 00:09 | 31.22229 | -103.96909 | 32932 ft | 506 kts | 108° |
| 2026-04-22 00:10 | 31.20128 | -103.89063 | 32926 ft | 506 kts | 108° |
| 2026-04-22 00:10 | 31.18040 | -103.81282 | 32939 ft | 505 kts | 109° |
| 2026-04-22 00:11 | 31.15934 | -103.73453 | 32949 ft | 506 kts | 109° |
| 2026-04-22 00:11 | 31.13820 | -103.65617 | 32956 ft | 506 kts | 109° |
| 2026-04-22 00:12 | 31.11701 | -103.57786 | 32955 ft | 506 kts | 109° |
| 2026-04-22 00:12 | 31.09580 | -103.49968 | 32952 ft | 506 kts | 109° |
| 2026-04-22 00:13 | 31.07449 | -103.42136 | 32942 ft | 507 kts | 109° |
| 2026-04-22 00:13 | 31.05312 | -103.34300 | 32930 ft | 507 kts | 109° |
| 2026-04-22 00:14 | 31.03172 | -103.26476 | 32947 ft | 507 kts | 109° |
| 2026-04-22 00:14 | 31.01022 | -103.18645 | 32987 ft | 508 kts | 109° |
| 2026-04-22 00:15 | 30.98860 | -103.10784 | 33021 ft | 509 kts | 109° |
| 2026-04-22 00:15 | 30.96694 | -103.02933 | 33055 ft | 509 kts | 109° |
| 2026-04-22 00:16 | 30.95487 | -102.94807 | 33068 ft | 513 kts | 95° |
| 2026-04-22 00:16 | 30.95120 | -102.86490 | 33064 ft | 515 kts | 92° |
| 2026-04-22 00:17 | 30.94880 | -102.78173 | 33052 ft | 513 kts | 92° |
| 2026-04-22 00:17 | 30.94670 | -102.69859 | 33031 ft | 514 kts | 92° |
| 2026-04-22 00:18 | 30.94466 | -102.61583 | 33007 ft | 515 kts | 92° |
| 2026-04-22 00:18 | 30.94259 | -102.53250 | 32992 ft | 514 kts | 92° |
| 2026-04-22 00:19 | 30.94049 | -102.44924 | 32991 ft | 515 kts | 92° |
| 2026-04-22 00:19 | 30.93869 | -102.37939 | 32995 ft | 515 kts | 92° |
| 2026-04-22 00:20 | 30.93650 | -102.29591 | 33001 ft | 515 kts | 92° |
| 2026-04-22 00:20 | 30.93427 | -102.21309 | 33009 ft | 515 kts | 92° |
| 2026-04-22 00:21 | 30.93198 | -102.12967 | 33015 ft | 516 kts | 92° |
| 2026-04-22 00:21 | 30.92963 | -102.04613 | 33016 ft | 516 kts | 92° |
| 2026-04-22 00:22 | 30.92724 | -101.96264 | 33018 ft | 516 kts | 92° |
| 2026-04-22 00:22 | 30.92479 | -101.87913 | 33020 ft | 516 kts | 92° |
| 2026-04-22 00:23 | 30.92228 | -101.79550 | 33025 ft | 516 kts | 92° |
| 2026-04-22 00:23 | 30.91972 | -101.71196 | 33030 ft | 516 kts | 92° |
| 2026-04-22 00:24 | 30.91711 | -101.62836 | 33032 ft | 517 kts | 92° |
| 2026-04-22 00:24 | 30.91444 | -101.54467 | 33037 ft | 517 kts | 92° |
| 2026-04-22 00:25 | 30.91172 | -101.46095 | 33066 ft | 518 kts | 92° |
| 2026-04-22 00:25 | 30.90894 | -101.37716 | 33088 ft | 518 kts | 92° |
| 2026-04-22 00:26 | 30.90611 | -101.29335 | 33105 ft | 518 kts | 92° |
| 2026-04-22 00:26 | 30.90322 | -101.20943 | 33118 ft | 519 kts | 92° |
| 2026-04-22 00:27 | 30.90028 | -101.12548 | 33113 ft | 519 kts | 92° |
| 2026-04-22 00:27 | 30.89728 | -101.04145 | 33102 ft | 520 kts | 92° |
| 2026-04-22 00:28 | 30.89423 | -100.95729 | 33087 ft | 521 kts | 92° |
| 2026-04-22 00:28 | 30.89111 | -100.87305 | 33070 ft | 521 kts | 92° |
| 2026-04-22 00:29 | 30.88794 | -100.78879 | 33076 ft | 521 kts | 92° |
| 2026-04-22 00:29 | 30.88471 | -100.70442 | 33084 ft | 522 kts | 93° |
| 2026-04-22 00:30 | 30.88144 | -100.62062 | 33091 ft | 522 kts | 93° |
| 2026-04-22 00:30 | 30.87809 | -100.53622 | 33092 ft | 522 kts | 93° |
| 2026-04-22 00:31 | 30.87469 | -100.45168 | 33087 ft | 523 kts | 93° |
| 2026-04-22 00:31 | 30.87124 | -100.36723 | 33083 ft | 523 kts | 93° |
| 2026-04-22 00:32 | 30.86773 | -100.28267 | 33088 ft | 523 kts | 93° |
| 2026-04-22 00:32 | 30.86416 | -100.19807 | 33090 ft | 523 kts | 93° |
| 2026-04-22 00:33 | 30.86053 | -100.11346 | 33096 ft | 523 kts | 93° |
| 2026-04-22 00:33 | 30.85685 | -100.02886 | 33104 ft | 524 kts | 93° |
| 2026-04-22 00:34 | 30.85311 | -99.94414 | 33109 ft | 525 kts | 93° |
| 2026-04-22 00:34 | 30.84931 | -99.85929 | 33060 ft | 526 kts | 93° |
| 2026-04-22 00:34 | 30.84740 | -99.81707 | 32668 ft | 516 kts | 93° |
| 2026-04-22 00:35 | 30.84551 | -99.77582 | 32284 ft | 507 kts | 93° |
| 2026-04-22 00:35 | 30.84363 | -99.73489 | 31831 ft | 506 kts | 93° |
| 2026-04-22 00:35 | 30.84173 | -99.69399 | 31392 ft | 508 kts | 93° |
| 2026-04-22 00:35 | 30.83981 | -99.65279 | 30959 ft | 510 kts | 93° |
| 2026-04-22 00:36 | 30.83788 | -99.61160 | 30534 ft | 510 kts | 93° |
| 2026-04-22 00:36 | 30.83595 | -99.57097 | 30100 ft | 509 kts | 93° |
| 2026-04-22 00:36 | 30.83398 | -99.52988 | 29611 ft | 509 kts | 93° |
| 2026-04-22 00:36 | 30.83198 | -99.48820 | 29122 ft | 510 kts | 93° |
| 2026-04-22 00:37 | 30.82998 | -99.44689 | 28642 ft | 511 kts | 93° |
| 2026-04-22 00:37 | 30.82800 | -99.40621 | 28178 ft | 511 kts | 93° |
| 2026-04-22 00:37 | 30.82598 | -99.36501 | 27717 ft | 510 kts | 93° |
| 2026-04-22 00:37 | 30.82395 | -99.32376 | 27261 ft | 511 kts | 93° |
| 2026-04-22 00:38 | 30.82190 | -99.28249 | 26806 ft | 511 kts | 93° |
| 2026-04-22 00:38 | 30.81984 | -99.24116 | 26372 ft | 512 kts | 93° |
| 2026-04-22 00:38 | 30.81776 | -99.19979 | 25933 ft | 511 kts | 93° |
| 2026-04-22 00:38 | 30.81569 | -99.15878 | 25510 ft | 506 kts | 93° |
| 2026-04-22 00:39 | 30.81363 | -99.11824 | 25082 ft | 495 kts | 93° |
| 2026-04-22 00:39 | 30.81162 | -99.07898 | 24673 ft | 479 kts | 93° |
| 2026-04-22 00:39 | 30.80965 | -99.04090 | 24264 ft | 464 kts | 93° |
| 2026-04-22 00:39 | 30.80774 | -99.00399 | 23863 ft | 451 kts | 93° |
| 2026-04-22 00:40 | 30.80586 | -98.96812 | 23418 ft | 439 kts | 93° |
| 2026-04-22 00:40 | 30.80403 | -98.93313 | 22946 ft | 428 kts | 93° |
| 2026-04-22 00:40 | 30.80225 | -98.89895 | 22478 ft | 419 kts | 93° |
| 2026-04-22 00:40 | 30.80049 | -98.86533 | 22022 ft | 415 kts | 93° |
| 2026-04-22 00:41 | 30.79868 | -98.83184 | 21583 ft | 415 kts | 94° |
| 2026-04-22 00:41 | 30.79634 | -98.79863 | 21351 ft | 410 kts | 95° |
| 2026-04-22 00:41 | 30.79354 | -98.76560 | 21262 ft | 411 kts | 96° |
| 2026-04-22 00:41 | 30.79046 | -98.73248 | 21160 ft | 414 kts | 96° |
| 2026-04-22 00:42 | 30.78718 | -98.69902 | 20698 ft | 416 kts | 96° |
| 2026-04-22 00:42 | 30.78383 | -98.66589 | 20272 ft | 409 kts | 96° |
| 2026-04-22 00:42 | 30.78047 | -98.63329 | 19844 ft | 404 kts | 97° |
| 2026-04-22 00:42 | 30.77710 | -98.60102 | 19424 ft | 401 kts | 97° |
| 2026-04-22 00:43 | 30.77372 | -98.56885 | 19008 ft | 400 kts | 97° |
| 2026-04-22 00:43 | 30.77033 | -98.53687 | 18599 ft | 397 kts | 97° |
| 2026-04-22 00:43 | 30.76697 | -98.50513 | 18140 ft | 394 kts | 97° |
| 2026-04-22 00:43 | 30.76338 | -98.47367 | 17662 ft | 391 kts | 101° |
| 2026-04-22 00:44 | 30.75649 | -98.44320 | 17190 ft | 389 kts | 108° |
| 2026-04-22 00:44 | 30.74766 | -98.41359 | 16716 ft | 387 kts | 111° |
| 2026-04-22 00:44 | 30.73796 | -98.38450 | 16244 ft | 384 kts | 113° |
| 2026-04-22 00:44 | 30.72785 | -98.35597 | 15787 ft | 380 kts | 114° |
| 2026-04-22 00:45 | 30.71745 | -98.32783 | 15319 ft | 378 kts | 115° |
| 2026-04-22 00:45 | 30.70687 | -98.29998 | 14881 ft | 376 kts | 115° |
| 2026-04-22 00:45 | 30.69617 | -98.27228 | 14432 ft | 374 kts | 116° |
| 2026-04-22 00:45 | 30.68545 | -98.24486 | 13988 ft | 372 kts | 116° |
| 2026-04-22 00:46 | 30.67472 | -98.21767 | 13501 ft | 367 kts | 116° |
| 2026-04-22 00:46 | 30.66421 | -98.19122 | 12954 ft | 352 kts | 116° |
| 2026-04-22 00:46 | 30.65439 | -98.16654 | 12481 ft | 332 kts | 116° |
| 2026-04-22 00:46 | 30.64489 | -98.14266 | 12061 ft | 323 kts | 116° |
| 2026-04-22 00:47 | 30.63544 | -98.11896 | 11587 ft | 322 kts | 116° |
| 2026-04-22 00:47 | 30.62607 | -98.09546 | 11130 ft | 319 kts | 116° |
| 2026-04-22 00:47 | 30.61676 | -98.07215 | 10697 ft | 316 kts | 115° |
| 2026-04-22 00:47 | 30.60757 | -98.04909 | 10243 ft | 313 kts | 115° |
| 2026-04-22 00:48 | 30.59849 | -98.02623 | 9787 ft | 311 kts | 115° |
| 2026-04-22 00:48 | 30.58956 | -98.00362 | 9385 ft | 305 kts | 115° |
| 2026-04-22 00:48 | 30.58096 | -97.98180 | 9190 ft | 292 kts | 116° |
| 2026-04-22 00:48 | 30.57642 | -97.97054 | 9153 ft | 284 kts | 117° |
| 2026-04-22 00:49 | 30.56835 | -97.95300 | 9001 ft | 279 kts | 122° |
| 2026-04-22 00:49 | 30.55800 | -97.93370 | 8564 ft | 279 kts | 125° |
| 2026-04-22 00:49 | 30.55512 | -97.92875 | 8461 ft | 278 kts | 127° |
| 2026-04-22 00:49 | 30.54708 | -97.91561 | 8205 ft | 274 kts | 128° |
| 2026-04-22 00:50 | 30.53560 | -97.89812 | 7822 ft | 271 kts | 131° |
| 2026-04-22 00:50 | 30.52386 | -97.88124 | 7451 ft | 267 kts | 132° |
| 2026-04-22 00:50 | 30.51200 | -97.86481 | 7093 ft | 264 kts | 133° |
| 2026-04-22 00:50 | 30.50047 | -97.84834 | 6716 ft | 262 kts | 131° |
| 2026-04-22 00:51 | 30.48919 | -97.83189 | 6351 ft | 259 kts | 130° |
| 2026-04-22 00:51 | 30.47936 | -97.81449 | 5962 ft | 258 kts | 122° |
| 2026-04-22 00:51 | 30.47097 | -97.79634 | 5736 ft | 249 kts | 120° |
| 2026-04-22 00:51 | 30.46324 | -97.77854 | 5344 ft | 245 kts | 120° |
| 2026-04-22 00:52 | 30.45567 | -97.76103 | 4840 ft | 241 kts | 120° |
| 2026-04-22 00:52 | 30.45127 | -97.75102 | 4564 ft | 239 kts | 121° |
| 2026-04-22 00:52 | 30.44474 | -97.73636 | 4154 ft | 236 kts | 121° |
| 2026-04-22 00:52 | 30.43714 | -97.71974 | 3687 ft | 231 kts | 122° |
| 2026-04-22 00:53 | 30.42869 | -97.70437 | 3333 ft | 220 kts | 138° |
| 2026-04-22 00:53 | 30.41617 | -97.69569 | 3174 ft | 203 kts | 158° |
| 2026-04-22 00:53 | 30.40336 | -97.69058 | 3095 ft | 190 kts | 164° |
| 2026-04-22 00:53 | 30.39096 | -97.68726 | 3043 ft | 175 kts | 169° |
| 2026-04-22 00:54 | 30.37919 | -97.68520 | 3041 ft | 170 kts | 172° |
| 2026-04-22 00:54 | 30.36749 | -97.68392 | 3037 ft | 165 kts | 174° |
| 2026-04-22 00:54 | 30.35601 | -97.68317 | 3033 ft | 168 kts | 176° |
| 2026-04-22 00:54 | 30.34384 | -97.68270 | 2769 ft | 178 kts | 177° |
| 2026-04-22 00:55 | 30.33154 | -97.68244 | 2511 ft | 175 kts | 176° |
| 2026-04-22 00:55 | 30.31938 | -97.68221 | 2189 ft | 174 kts | 175° |
| 2026-04-22 00:55 | 30.29623 | -97.68154 | 1757 ft | 162 kts | 174° |
| 2026-04-22 00:56 | 30.28503 | -97.68111 | 1685 ft | 153 kts | 174° |
| 2026-04-22 00:56 | 30.27471 | -97.68083 | 1665 ft | 149 kts | 174° |
| 2026-04-22 00:56 | 30.26383 | -97.68051 | 1632 ft | 161 kts | 175° |
| 2026-04-22 00:56 | 30.25244 | -97.68019 | 1369 ft | 169 kts | 175° |
| 2026-04-22 00:57 | 30.24105 | -97.68003 | 1112 ft | 157 kts | 177° |
| 2026-04-22 00:57 | 30.23061 | -97.67981 | 922 ft | 143 kts | 175° |
| 2026-04-22 00:57 | 30.22075 | -97.67967 | 703 ft | 146 kts | 176° |
| 2026-04-22 00:57 | 30.21053 | -97.67932 | 565 ft | 144 kts | 179° |
| 2026-04-22 00:58 | 30.20160 | -97.67910 | 531 ft | 103 kts | 178° |
| 2026-04-22 00:58 | 30.19674 | -97.67895 | 521 ft | 45 kts | 179° |
| 2026-04-22 00:58 | 30.19475 | -97.67841 | 520 ft | 15 kts | 149° |
| 2026-04-22 00:58 | 30.19438 | -97.67820 | 520 ft | 4 kts | 152° |
| 2026-04-22 00:59 | 30.19398 | -97.67769 | 519 ft | 0 kts | 101° |
| 2026-04-22 00:59 | 30.19398 | -97.67768 | 519 ft | 1 kts | 100° |
| 2026-04-22 00:59 | 30.19395 | -97.67709 | 518 ft | 13 kts | 91° |
| 2026-04-22 01:00 | 30.19396 | -97.67615 | 519 ft | 11 kts | 88° |
| 2026-04-22 01:00 | 30.19398 | -97.67527 | 519 ft | 12 kts | 89° |
| 2026-04-22 01:00 | 30.19400 | -97.67408 | 517 ft | 17 kts | 89° |
| 2026-04-22 01:00 | 30.19345 | -97.67323 | 515 ft | 13 kts | 168° |
| 2026-04-22 01:01 | 30.19245 | -97.67314 | 514 ft | 16 kts | 180° |
| 2026-04-22 01:01 | 30.19123 | -97.67313 | 514 ft | 19 kts | 177° |
| 2026-04-22 01:01 | 30.18985 | -97.67312 | 511 ft | 18 kts | 183° |
| 2026-04-22 01:01 | 30.18890 | -97.67304 | 509 ft | 11 kts | 180° |
| 2026-04-22 01:02 | 30.18820 | -97.67304 | 508 ft | 10 kts | 179° |
| 2026-04-22 01:02 | 30.18734 | -97.67302 | 507 ft | 14 kts | 179° |
| 2026-04-22 01:02 | 30.18620 | -97.67298 | 505 ft | 19 kts | 178° |
| 2026-04-22 01:02 | 30.18473 | -97.67296 | 501 ft | 23 kts | 179° |
| 2026-04-22 01:03 | 30.18327 | -97.67289 | 500 ft | 18 kts | 177° |
| 2026-04-22 01:03 | 30.18223 | -97.67288 | 491 ft | 13 kts | 176° |
| 2026-04-22 01:03 | 30.18136 | -97.67285 | 492 ft | 13 kts | 180° |
| 2026-04-22 01:03 | 30.18053 | -97.67310 | 492 ft | 12 kts | 206° |
| 2026-04-22 01:04 | 30.17960 | -97.67322 | 491 ft | 17 kts | 180° |
| 2026-04-22 01:04 | 30.17827 | -97.67341 | 487 ft | 21 kts | 226° |
| 2026-04-22 01:04 | 30.17730 | -97.67386 | 486 ft | 12 kts | 156° |
| 2026-04-22 01:04 | 30.17708 | -97.67342 | 489 ft | 0 kts | 89° |